Collinston, Utah
Current Conditions -  °F | °C
As of 10:51 AM on Saturday 22 Nov 2014 (Local Time) from KLGU Reporting Station
Moderate Rain Moderate Rain  
Wind Chill: 27°   Ceiling: 2000
Heat Index: 37°   Visibility: 5mi
Dew Point: 34°   Wind: 17mph
Humidity: 89%   Direction: 150°SSE
Pressure: 29.83"   Gusts: 22mph
Location:  41.79°N, 112.07°W
Report Text: KLGU 221751Z AUTO 15015G19KT 5SM RA BR FEW015 OVC020 03/01 A2983 RMK AO2 PRESFR SLP112 P0014 60022 T00280011 10078 20011 50005
Loading
Personal Weather Stations






























Interactive Weather Map New forecast layout! Learn more

10-Day Weather Forecast

Advertisements
Track Severe Weather on mobile